createdAt,value
2022-08-24T00:01:18.264Z,98774.61
2022-08-24T00:04:17.446Z,98774.46
2022-08-24T00:10:22.079Z,98776.14
2022-08-24T00:13:48.449Z,98778.50
2022-08-24T00:16:53.199Z,98779.82
2022-08-24T00:26:53.122Z,98777.78
2022-08-24T00:29:27.918Z,98776.04
2022-08-24T00:33:14.987Z,98779.80
2022-08-24T00:36:16.844Z,98780.93
2022-08-24T00:40:02.284Z,98780.77
2022-08-24T00:43:49.658Z,98781.64
2022-08-24T01:00:24.691Z,98779.29
2022-08-24T01:04:13.390Z,98783.16
2022-08-24T01:06:53.280Z,98783.39
2022-08-24T01:12:37.877Z,98790.30
2022-08-24T01:15:36.910Z,98789.55
2022-08-24T01:18:37.839Z,98795.77
2022-08-24T01:21:26.299Z,98798.81
2022-08-24T01:24:28.386Z,98802.69
2022-08-24T01:27:29.435Z,98802.13
2022-08-24T01:31:21.559Z,98801.63
2022-08-24T01:34:02.305Z,98799.39
2022-08-24T01:36:48.413Z,98798.67
2022-08-24T01:42:31.365Z,98801.60
2022-08-24T01:45:35.864Z,98801.95
2022-08-24T01:52:25.375Z,98797.21
2022-08-24T01:55:23.853Z,98791.02
2022-08-24T01:58:47.002Z,98791.90
2022-08-24T02:04:48.301Z,98789.47
2022-08-24T02:07:27.083Z,98789.84
2022-08-24T02:10:56.979Z,98790.20
2022-08-24T02:16:55.222Z,98786.48
2022-08-24T02:19:37.498Z,98791.96
2022-08-24T02:22:14.631Z,98798.50
2022-08-24T02:25:22.108Z,98802.19
2022-08-24T02:31:24.493Z,98801.45
2022-08-24T02:34:50.741Z,98808.75
2022-08-24T02:37:35.480Z,98809.59
2022-08-24T02:40:44.949Z,98807.83
2022-08-24T02:43:47.105Z,98806.41
2022-08-24T02:46:53.477Z,98811.54
2022-08-24T02:53:14.054Z,98807.64
2022-08-24T02:55:47.562Z,98810.30
2022-08-24T02:58:25.208Z,98809.23
2022-08-24T03:01:05.720Z,98810.80
2022-08-24T03:03:54.651Z,98810.77
2022-08-24T03:06:56.711Z,98813.94
2022-08-24T03:10:19.241Z,98814.30
2022-08-24T03:13:05.918Z,98812.88
2022-08-24T03:15:48.112Z,98816.55
2022-08-24T03:18:29.002Z,98815.84
2022-08-24T03:21:27.238Z,98812.99
2022-08-24T03:24:04.047Z,98813.12
2022-08-24T03:27:03.907Z,98817.78
2022-08-24T03:33:33.561Z,98822.24
2022-08-24T03:36:39.013Z,98826.33
2022-08-24T03:39:12.595Z,98830.48
2022-08-24T03:46:00.774Z,98838.77
2022-08-24T03:49:00.382Z,98840.38
2022-08-24T03:54:36.963Z,98842.81
2022-08-24T03:57:38.760Z,98842.98
2022-08-24T04:00:44.053Z,98838.52
2022-08-24T04:03:23.675Z,98836.91
2022-08-24T04:06:03.706Z,98836.39
2022-08-24T04:09:06.340Z,98832.29
2022-08-24T04:12:27.538Z,98830.09
2022-08-24T04:15:29.335Z,98830.83
2022-08-24T04:18:09.205Z,98825.46
2022-08-24T04:20:46.233Z,98820.45
2022-08-24T04:23:47.984Z,98814.88
2022-08-24T04:26:55.541Z,98813.74
2022-08-24T04:29:33.011Z,98816.34
2022-08-24T04:39:29.267Z,98825.98
2022-08-24T04:42:10.079Z,98828.09
2022-08-24T04:48:04.202Z,98830.06
2022-08-24T04:54:36.594Z,98835.27
2022-08-24T04:57:18.294Z,98832.20
2022-08-24T05:03:21.583Z,98828.55
2022-08-24T05:05:58.955Z,98826.55
2022-08-24T05:08:37.994Z,98825.64
2022-08-24T05:11:16.410Z,98823.80
2022-08-24T05:14:18.580Z,98820.02
2022-08-24T05:16:55.493Z,98822.61
2022-08-24T05:20:42.085Z,98824.00
2022-08-24T05:23:47.139Z,98821.38
2022-08-24T05:26:46.962Z,98826.96
2022-08-24T05:29:27.090Z,98832.95
2022-08-24T05:32:03.153Z,98831.98
2022-08-24T05:34:45.474Z,98835.38
2022-08-24T05:37:23.668Z,98838.27
2022-08-24T05:40:20.079Z,98839.61
2022-08-24T05:43:46.742Z,98832.94
2022-08-24T05:46:50.099Z,98828.27
2022-08-24T05:49:28.678Z,98829.74
2022-08-24T05:52:02.976Z,98836.00
2022-08-24T05:54:43.070Z,98834.45
2022-08-24T05:57:19.808Z,98833.20
2022-08-24T06:03:44.780Z,98833.88
2022-08-24T06:06:48.917Z,98831.27
2022-08-24T06:13:13.767Z,98834.39
2022-08-24T06:16:10.883Z,98837.43
2022-08-24T06:19:32.559Z,98834.48
2022-08-24T06:22:13.432Z,98833.32
2022-08-24T06:25:05.042Z,98835.96
2022-08-24T06:35:46.626Z,98859.59
2022-08-24T06:38:23.199Z,98856.49
2022-08-24T06:41:49.303Z,98852.64
2022-08-24T06:44:24.536Z,98857.73
2022-08-24T06:50:03.542Z,98856.63
2022-08-24T06:52:36.816Z,98860.61
2022-08-24T06:55:42.030Z,98867.41
2022-08-24T06:58:44.311Z,98868.92
2022-08-24T07:01:44.117Z,98863.69
2022-08-24T07:04:27.579Z,98869.61
2022-08-24T07:07:04.293Z,98866.45
2022-08-24T07:10:35.619Z,98867.98
2022-08-24T07:13:14.072Z,98865.55
2022-08-24T07:15:59.699Z,98865.52
2022-08-24T07:25:54.196Z,98870.98
2022-08-24T07:28:33.732Z,98870.79
2022-08-24T07:31:15.428Z,98872.33
2022-08-24T07:34:34.968Z,98867.59
2022-08-24T07:37:11.085Z,98867.58
2022-08-24T07:39:48.046Z,98866.16
2022-08-24T07:43:11.573Z,98860.74
2022-08-24T07:45:53.734Z,98864.64
2022-08-24T07:48:31.842Z,98865.84
2022-08-24T07:55:06.810Z,98875.23
2022-08-24T07:58:08.580Z,98876.88
2022-08-24T08:00:41.050Z,98884.14
2022-08-24T08:03:19.283Z,98887.21
2022-08-24T08:06:16.192Z,98896.98
2022-08-24T08:09:43.560Z,98901.08
2022-08-24T08:13:13.302Z,98906.25
2022-08-24T08:15:59.944Z,98904.48
2022-08-24T08:18:38.925Z,98897.73
2022-08-24T08:21:39.385Z,98898.98
2022-08-24T08:24:20.841Z,98900.27
2022-08-24T08:27:51.940Z,98900.80
2022-08-24T08:30:52.363Z,98903.85
2022-08-24T08:33:34.123Z,98902.23
2022-08-24T08:36:59.853Z,98902.81
2022-08-24T08:40:05.750Z,98901.15
2022-08-24T08:53:51.907Z,98903.40
2022-08-24T08:56:39.104Z,98904.22
2022-08-24T09:00:08.494Z,98910.56
2022-08-24T09:11:09.142Z,98909.88
2022-08-24T09:13:55.829Z,98915.50
2022-08-24T09:17:16.852Z,98909.58
2022-08-24T09:20:10.351Z,98907.07
2022-08-24T09:23:15.507Z,98906.40
2022-08-24T09:26:19.849Z,98898.05
2022-08-24T09:32:46.712Z,98903.14
2022-08-24T09:36:20.151Z,98900.02
2022-08-24T09:40:03.621Z,98897.45
2022-08-24T09:43:22.782Z,98899.15
2022-08-24T09:57:44.308Z,98891.21
2022-08-24T10:00:25.093Z,98887.32
2022-08-24T10:03:03.131Z,98889.13
2022-08-24T10:06:01.376Z,98882.11
2022-08-24T10:08:47.341Z,98882.02
2022-08-24T10:11:26.929Z,98885.23
2022-08-24T10:14:05.113Z,98882.91
2022-08-24T10:16:42.819Z,98886.17
2022-08-24T10:19:41.941Z,98878.71
2022-08-24T10:22:26.663Z,98875.13
2022-08-24T10:25:19.038Z,98875.02
2022-08-24T10:28:04.662Z,98873.86
2022-08-24T10:31:03.920Z,98878.52
2022-08-24T10:33:42.126Z,98876.70
2022-08-24T10:36:59.790Z,98874.69
2022-08-24T10:40:06.136Z,98871.62
2022-08-24T10:43:25.892Z,98867.76
2022-08-24T10:46:36.797Z,98872.33
2022-08-24T10:49:35.001Z,98872.40
2022-08-24T10:52:39.856Z,98871.75
2022-08-24T10:55:20.670Z,98872.96
2022-08-24T10:58:23.200Z,98871.63
2022-08-24T11:00:57.681Z,98871.34
2022-08-24T11:03:32.174Z,98871.36
2022-08-24T11:06:17.945Z,98872.56
2022-08-24T11:08:58.555Z,98875.95
2022-08-24T11:11:34.584Z,98874.05
2022-08-24T11:14:09.917Z,98870.98
2022-08-24T11:16:45.670Z,98870.44
2022-08-24T11:19:35.172Z,98874.67
2022-08-24T11:22:25.133Z,98865.20
2022-08-24T11:25:01.999Z,98861.96
2022-08-24T11:27:38.650Z,98857.73
2022-08-24T11:30:17.137Z,98858.05
2022-08-24T11:32:52.965Z,98854.42
2022-08-24T11:35:28.983Z,98856.94
2022-08-24T11:38:15.815Z,98857.27
2022-08-24T11:40:54.211Z,98854.70
2022-08-24T11:43:37.485Z,98853.30
2022-08-24T11:46:21.923Z,98850.22
2022-08-24T11:49:03.107Z,98842.96
2022-08-24T11:51:47.558Z,98844.08
2022-08-24T11:54:32.775Z,98843.44
2022-08-24T11:57:15.776Z,98846.15
2022-08-24T12:00:04.373Z,98845.09
2022-08-24T12:02:40.926Z,98845.61
2022-08-24T12:05:24.435Z,98853.83
2022-08-24T12:08:08.967Z,98853.61
2022-08-24T12:10:46.922Z,98858.26
2022-08-24T12:13:31.495Z,98858.88
2022-08-24T12:16:10.708Z,98857.98
2022-08-24T12:18:53.522Z,98860.09
2022-08-24T12:21:29.274Z,98859.32
2022-08-24T12:24:05.692Z,98862.15
2022-08-24T12:26:41.602Z,98854.36
2022-08-24T12:29:17.527Z,98847.98
2022-08-24T12:31:54.418Z,98845.20
2022-08-24T12:34:33.561Z,98846.42
2022-08-24T12:37:16.172Z,98848.02
2022-08-24T12:39:55.908Z,98846.52
2022-08-24T12:42:35.167Z,98842.20
2022-08-24T12:45:10.727Z,98841.20
2022-08-24T12:47:48.543Z,98834.19
2022-08-24T12:50:28.375Z,98833.07
2022-08-24T12:53:30.288Z,98834.33
2022-08-24T12:56:33.643Z,98830.80
2022-08-24T12:59:26.034Z,98830.69
2022-08-24T13:02:04.282Z,98832.77
2022-08-24T13:04:41.657Z,98830.66
2022-08-24T13:07:27.996Z,98833.34
2022-08-24T13:10:14.839Z,98833.38
2022-08-24T13:13:11.104Z,98837.25
2022-08-24T13:16:03.469Z,98833.04
2022-08-24T13:19:12.716Z,98834.06
2022-08-24T13:21:54.982Z,98837.61
2022-08-24T13:24:57.741Z,98837.89
2022-08-24T13:27:57.195Z,98840.23
2022-08-24T13:30:36.547Z,98836.19
2022-08-24T13:33:15.107Z,98835.08
2022-08-24T13:36:19.665Z,98824.34
2022-08-24T13:39:03.269Z,98823.63
2022-08-24T13:41:51.181Z,98822.44
2022-08-24T13:44:53.390Z,98814.45
2022-08-24T13:47:32.519Z,98805.71
2022-08-24T13:50:12.392Z,98803.21
2022-08-24T13:52:56.788Z,98805.39
2022-08-24T13:55:36.109Z,98803.85
2022-08-24T13:58:28.019Z,98797.09
2022-08-24T14:01:04.399Z,98789.98
2022-08-24T14:03:55.458Z,98784.27
2022-08-24T14:06:40.233Z,98783.48
2022-08-24T14:09:23.629Z,98781.17
2022-08-24T14:12:17.454Z,98777.82
2022-08-24T14:15:00.178Z,98780.39
2022-08-24T14:17:56.124Z,98786.51
2022-08-24T14:21:18.097Z,98786.21
2022-08-24T14:24:27.866Z,98780.94
2022-08-24T14:27:39.040Z,98777.20
2022-08-24T14:31:00.228Z,98771.23
2022-08-24T14:33:42.847Z,98774.63
2022-08-24T14:39:57.705Z,98774.45
2022-08-24T14:43:21.338Z,98771.98
2022-08-24T14:46:44.656Z,98764.02
2022-08-24T14:50:12.680Z,98759.56
2022-08-24T14:56:07.519Z,98772.97
2022-08-24T14:58:58.526Z,98773.97
2022-08-24T15:01:49.583Z,98778.06
2022-08-24T15:07:48.748Z,98800.84
2022-08-24T15:10:34.453Z,98802.27
2022-08-24T15:14:25.762Z,98790.75
2022-08-24T15:17:56.807Z,98789.57
2022-08-24T15:21:00.358Z,98793.73
2022-08-24T15:24:16.617Z,98801.17
2022-08-24T15:27:15.967Z,98796.12
2022-08-24T15:34:27.059Z,98770.38
2022-08-24T15:37:29.371Z,98768.16
2022-08-24T15:40:48.543Z,98767.45
2022-08-24T15:43:48.390Z,98780.43
2022-08-24T15:46:49.347Z,98795.30
2022-08-24T15:49:59.261Z,98800.49
2022-08-24T15:53:15.402Z,98792.74
2022-08-24T16:02:53.206Z,98783.19
2022-08-24T16:06:06.084Z,98778.70
2022-08-24T16:09:00.938Z,98790.11
2022-08-24T16:11:46.974Z,98799.95
2022-08-24T16:14:48.896Z,98798.64
2022-08-24T16:20:37.798Z,98798.23
2022-08-24T16:23:40.855Z,98800.70
2022-08-24T16:29:56.530Z,98793.04
2022-08-24T16:32:53.353Z,98786.74
2022-08-24T16:35:59.825Z,98791.27
2022-08-24T16:39:22.752Z,98790.81
2022-08-24T16:42:30.514Z,98802.93
2022-08-24T16:45:25.978Z,98796.33
2022-08-24T16:51:10.599Z,98802.43
2022-08-24T16:53:53.967Z,98803.38
2022-08-24T16:57:17.497Z,98803.40
2022-08-24T17:00:19.335Z,98802.22
2022-08-24T17:03:04.214Z,98796.98
2022-08-24T17:09:24.854Z,98804.91
2022-08-24T17:12:32.854Z,98807.36
2022-08-24T17:15:59.099Z,98804.13
2022-08-24T17:22:20.720Z,98811.09
2022-08-24T17:25:46.784Z,98820.15
2022-08-24T17:32:01.199Z,98827.17
2022-08-24T17:34:44.673Z,98838.23
2022-08-24T17:37:24.913Z,98840.05
2022-08-24T17:40:35.623Z,98842.34
2022-08-24T17:43:35.598Z,98847.30
2022-08-24T17:46:08.679Z,98857.14
2022-08-24T17:48:40.916Z,98861.27
2022-08-24T17:51:15.574Z,98860.31
2022-08-24T17:53:47.621Z,98859.14
2022-08-24T17:56:22.290Z,98862.58
2022-08-24T17:59:14.184Z,98869.27
2022-08-24T18:01:52.531Z,98869.08
2022-08-24T18:04:30.078Z,98866.48
2022-08-24T18:07:13.630Z,98873.62
2022-08-24T18:09:49.701Z,98878.46
2022-08-24T18:12:26.613Z,98879.73
2022-08-24T18:15:00.156Z,98884.40
2022-08-24T18:17:39.503Z,98888.88
2022-08-24T18:20:18.583Z,98888.62
2022-08-24T18:22:50.687Z,98886.74
2022-08-24T18:25:28.513Z,98884.30
2022-08-24T18:28:03.273Z,98880.80
2022-08-24T18:30:37.396Z,98881.66
2022-08-24T18:33:09.450Z,98884.66
2022-08-24T18:35:42.026Z,98886.02
2022-08-24T18:38:14.901Z,98888.30
2022-08-24T18:40:52.830Z,98892.96
2022-08-24T18:43:29.297Z,98892.02
2022-08-24T18:46:05.203Z,98895.64
2022-08-24T18:48:39.087Z,98902.19
2022-08-24T18:51:27.826Z,98900.70
2022-08-24T18:54:15.868Z,98903.80
2022-08-24T18:56:47.964Z,98907.04
2022-08-24T18:59:24.017Z,98904.06
2022-08-24T19:02:15.694Z,98900.73
2022-08-24T19:04:52.345Z,98893.79
2022-08-24T19:07:25.929Z,98899.31
2022-08-24T19:09:59.728Z,98899.95
2022-08-24T19:12:46.835Z,98904.34
2022-08-24T19:15:31.989Z,98901.81
2022-08-24T19:18:13.005Z,98905.88
2022-08-24T19:20:50.980Z,98903.34
2022-08-24T19:23:30.638Z,98902.40
2022-08-24T19:26:07.769Z,98896.86
2022-08-24T19:28:43.828Z,98895.54
2022-08-24T19:31:16.869Z,98892.97
2022-08-24T19:33:51.854Z,98894.67
2022-08-24T19:36:26.659Z,98896.54
2022-08-24T19:39:03.450Z,98900.32
2022-08-24T19:41:45.139Z,98898.27
2022-08-24T19:44:38.706Z,98902.21
2022-08-24T19:47:12.821Z,98903.98
2022-08-24T19:49:47.254Z,98907.94
2022-08-24T19:52:19.987Z,98912.77
2022-08-24T19:54:51.852Z,98923.81
2022-08-24T19:57:44.652Z,98929.56
2022-08-24T20:00:38.578Z,98926.08
2022-08-24T20:03:15.474Z,98924.02
2022-08-24T20:05:48.772Z,98923.39
2022-08-24T20:08:27.819Z,98923.04
2022-08-24T20:11:03.597Z,98931.12
2022-08-24T20:13:41.618Z,98933.12
2022-08-24T20:16:17.623Z,98938.35
2022-08-24T20:18:52.313Z,98940.73
2022-08-24T20:21:28.308Z,98938.52
2022-08-24T20:24:02.874Z,98936.46
2022-08-24T20:26:44.357Z,98936.36
2022-08-24T20:29:16.977Z,98931.27
2022-08-24T20:31:52.647Z,98931.71
2022-08-24T20:34:24.887Z,98928.58
2022-08-24T20:37:01.816Z,98935.59
2022-08-24T20:39:34.543Z,98941.02
2022-08-24T20:42:12.219Z,98941.25
2022-08-24T20:44:48.141Z,98944.31
2022-08-24T20:47:22.092Z,98947.06
2022-08-24T20:49:55.780Z,98951.90
2022-08-24T20:52:27.732Z,98959.42
2022-08-24T20:55:03.913Z,98962.29
2022-08-24T20:57:37.771Z,98968.58
2022-08-24T21:00:13.770Z,98971.48
2022-08-24T21:02:46.173Z,98962.80
2022-08-24T21:05:19.582Z,98967.07
2022-08-24T21:07:51.820Z,98962.14
2022-08-24T21:10:27.419Z,98962.34
2022-08-24T21:13:00.514Z,98958.67
2022-08-24T21:15:33.117Z,98958.39
2022-08-24T21:18:05.315Z,98957.92
2022-08-24T21:20:38.540Z,98957.38
2022-08-24T21:23:18.683Z,98957.92
2022-08-24T21:25:50.689Z,98960.07
2022-08-24T21:28:23.952Z,98957.29
2022-08-24T21:30:56.804Z,98957.66
2022-08-24T21:33:47.841Z,98956.95
2022-08-24T21:36:20.654Z,98951.45
2022-08-24T21:38:54.757Z,98940.09
2022-08-24T21:41:29.502Z,98936.90
2022-08-24T21:44:01.656Z,98933.36
2022-08-24T21:46:36.895Z,98930.98
2022-08-24T21:49:12.121Z,98935.48
2022-08-24T21:51:44.431Z,98935.52
2022-08-24T21:54:17.790Z,98933.80
2022-08-24T21:56:50.889Z,98932.77
2022-08-24T21:59:23.169Z,98934.23
2022-08-24T22:01:55.398Z,98933.91
2022-08-24T22:04:28.133Z,98935.02
2022-08-24T22:07:02.948Z,98936.67
2022-08-24T22:09:35.383Z,98936.73
2022-08-24T22:12:11.654Z,98937.52
2022-08-24T22:14:45.796Z,98936.50
2022-08-24T22:17:18.008Z,98934.91
2022-08-24T22:19:52.152Z,98936.73
2022-08-24T22:22:24.385Z,98938.55
2022-08-24T22:24:56.322Z,98945.67
2022-08-24T22:27:28.494Z,98935.61
2022-08-24T22:30:00.670Z,98935.64
2022-08-24T22:32:32.719Z,98935.15
2022-08-24T22:35:09.317Z,98935.20
2022-08-24T22:37:42.902Z,98935.05
2022-08-24T22:40:17.393Z,98936.48
2022-08-24T22:42:52.381Z,98934.39
2022-08-24T22:45:25.507Z,98933.19
2022-08-24T22:47:58.312Z,98930.36
2022-08-24T22:50:32.753Z,98932.70
2022-08-24T22:53:05.392Z,98932.90
2022-08-24T22:55:38.893Z,98928.68
2022-08-24T22:58:11.104Z,98924.61
2022-08-24T23:00:43.043Z,98921.60
2022-08-24T23:03:15.265Z,98917.90
2022-08-24T23:05:49.216Z,98919.52
2022-08-24T23:08:21.438Z,98925.20
2022-08-24T23:10:53.434Z,98926.61
2022-08-24T23:13:30.163Z,98928.41
2022-08-24T23:16:02.623Z,98927.55
2022-08-24T23:18:54.088Z,98922.77
2022-08-24T23:21:28.061Z,98916.38
2022-08-24T23:24:01.605Z,98916.23
2022-08-24T23:26:34.055Z,98914.96
2022-08-24T23:29:09.778Z,98915.86
2022-08-24T23:31:43.074Z,98924.73
2022-08-24T23:34:15.665Z,98921.93
2022-08-24T23:36:48.275Z,98922.83
2022-08-24T23:39:22.112Z,98916.83
2022-08-24T23:41:54.787Z,98917.72
2022-08-24T23:44:28.805Z,98915.59
2022-08-24T23:47:04.196Z,98918.43
2022-08-24T23:49:37.335Z,98918.64
2022-08-24T23:52:09.900Z,98919.17
2022-08-24T23:55:20.248Z,98919.72
2022-08-24T23:57:55.652Z,98917.42
